createdAt,value
2022-08-02T00:00:40.377Z,87.95
2022-08-02T00:05:42.814Z,88.47
2022-08-02T00:10:55.396Z,91.14
2022-08-02T00:15:58.750Z,90.31
2022-08-02T00:21:01.125Z,91.92
2022-08-02T00:26:03.802Z,93.11
2022-08-02T00:31:06.124Z,93.93
2022-08-02T00:36:08.474Z,95.40
2022-08-02T00:41:17.726Z,96.13
2022-08-02T00:46:21.077Z,98.35
2022-08-02T00:51:26.505Z,98.53
2022-08-02T00:56:31.302Z,98.88
2022-08-02T01:01:55.873Z,96.89
2022-08-02T01:07:13.372Z,98.08
2022-08-02T01:12:18.141Z,98.29
2022-08-02T01:17:36.872Z,98.15
2022-08-02T01:23:03.196Z,100.00
2022-08-02T01:28:36.901Z,100.00
2022-08-02T01:33:48.846Z,100.00
2022-08-02T01:38:55.062Z,100.00
2022-08-02T01:43:59.676Z,100.00
2022-08-02T01:49:08.481Z,100.00
2022-08-02T01:54:19.109Z,100.00
2022-08-02T01:59:23.306Z,100.00
2022-08-02T02:04:30.897Z,100.00
2022-08-02T02:09:40.819Z,100.00
2022-08-02T02:14:55.132Z,100.00
2022-08-02T02:20:02.276Z,100.00
2022-08-02T02:25:06.459Z,100.00
2022-08-02T02:30:12.144Z,100.00
2022-08-02T02:35:18.279Z,100.00
2022-08-02T02:40:21.723Z,100.00
2022-08-02T02:45:25.317Z,100.00
2022-08-02T02:50:28.909Z,100.00
2022-08-02T02:55:32.284Z,100.00
2022-08-02T03:00:56.241Z,100.00
2022-08-02T03:05:58.590Z,100.00
2022-08-02T03:11:01.086Z,100.00
2022-08-02T03:16:10.418Z,100.00
2022-08-02T03:21:17.375Z,100.00
2022-08-02T03:26:21.503Z,100.00
2022-08-02T03:31:24.822Z,100.00
2022-08-02T03:36:33.397Z,100.00
2022-08-02T03:41:39.926Z,100.00
2022-08-02T03:46:53.450Z,100.00
2022-08-02T03:51:56.199Z,100.00
2022-08-02T03:56:58.631Z,100.00
2022-08-02T04:02:03.867Z,100.00
2022-08-02T04:07:07.527Z,100.00
2022-08-02T04:12:13.473Z,100.00
2022-08-02T04:17:25.506Z,100.00
2022-08-02T04:22:39.986Z,100.00
2022-08-02T04:27:49.992Z,100.00
2022-08-02T04:33:10.880Z,100.00
2022-08-02T04:38:19.483Z,100.00
2022-08-02T04:43:22.998Z,100.00
2022-08-02T04:48:29.795Z,100.00
2022-08-02T04:53:32.405Z,100.00
2022-08-02T04:58:40.675Z,100.00
2022-08-02T05:03:43.184Z,100.00
2022-08-02T05:08:52.324Z,99.84
2022-08-02T05:13:58.481Z,92.73
2022-08-02T05:19:04.168Z,86.84
2022-08-02T05:24:07.458Z,80.77
2022-08-02T05:29:09.837Z,75.02
2022-08-02T05:34:12.890Z,74.54
2022-08-02T05:39:19.104Z,75.48
2022-08-02T05:44:29.080Z,76.20
2022-08-02T05:49:31.301Z,70.09
2022-08-02T05:54:39.713Z,71.74
2022-08-02T05:59:59.104Z,63.55
2022-08-02T06:05:05.978Z,64.25
2022-08-02T06:10:09.895Z,63.44
2022-08-02T06:15:15.279Z,67.29
2022-08-02T06:20:20.888Z,62.05
2022-08-02T06:25:49.837Z,57.70
2022-08-02T06:30:46.709Z,56.22
2022-08-02T06:36:18.975Z,47.67
2022-08-02T06:41:24.745Z,37.47
2022-08-02T06:47:10.071Z,31.72
2022-08-02T06:51:50.291Z,31.50
2022-08-02T06:56:52.789Z,35.02
2022-08-02T07:01:55.583Z,38.04
2022-08-02T07:07:10.446Z,34.54
2022-08-02T07:12:13.010Z,29.83
2022-08-02T07:17:15.713Z,32.65
2022-08-02T07:22:19.570Z,32.49
2022-08-02T07:27:22.497Z,32.25
2022-08-02T07:33:37.594Z,33.20
2022-08-02T07:38:09.287Z,34.17
2022-08-02T07:43:11.883Z,34.73
2022-08-02T07:48:15.265Z,35.78
2022-08-02T07:53:17.742Z,34.20
2022-08-02T07:58:20.098Z,34.48
2022-08-02T08:03:22.332Z,32.19
2022-08-02T08:08:24.696Z,33.58
2022-08-02T08:13:27.025Z,35.10
2022-08-02T08:18:29.680Z,34.06
2022-08-02T08:23:39.555Z,33.38
2022-08-02T08:28:42.279Z,33.53
2022-08-02T08:33:46.076Z,32.65
2022-08-02T08:38:50.414Z,33.49
2022-08-02T08:43:53.506Z,34.09
2022-08-02T08:49:23.626Z,34.47
2022-08-02T08:54:28.608Z,31.74
2022-08-02T08:59:31.080Z,32.63
2022-08-02T09:04:42.015Z,33.43
2022-08-02T09:09:57.153Z,32.16
2022-08-02T09:15:04.355Z,32.03
2022-08-02T09:20:11.227Z,32.40
2022-08-02T09:25:17.102Z,32.57
2022-08-02T09:30:19.494Z,36.06
2022-08-02T09:36:06.476Z,37.41
2022-08-02T09:41:03.187Z,38.29
2022-08-02T09:46:17.493Z,42.70
2022-08-02T09:51:29.141Z,42.45
2022-08-02T09:56:50.686Z,36.12
2022-08-02T10:02:01.868Z,35.07
2022-08-02T10:07:18.077Z,37.28
2022-08-02T10:12:22.556Z,38.27
2022-08-02T10:17:25.570Z,39.34
2022-08-02T10:22:28.061Z,39.39
2022-08-02T10:27:48.884Z,37.52
2022-08-02T10:32:54.969Z,40.44
2022-08-02T10:38:03.750Z,41.60
2022-08-02T10:43:06.090Z,41.22
2022-08-02T10:48:14.816Z,40.04
2022-08-02T10:53:24.922Z,35.14
2022-08-02T10:58:30.401Z,37.52
2022-08-02T11:03:39.278Z,38.56
2022-08-02T11:08:42.430Z,40.86
2022-08-02T11:14:02.776Z,43.22
2022-08-02T11:19:06.738Z,41.11
2022-08-02T11:24:28.048Z,43.34
2022-08-02T11:29:39.053Z,43.98
2022-08-02T11:34:42.716Z,44.72
2022-08-02T11:39:52.824Z,45.36
2022-08-02T11:44:55.592Z,44.42
2022-08-02T11:50:05.879Z,43.15
2022-08-02T11:55:09.456Z,36.82
2022-08-02T12:00:20.789Z,31.96
2022-08-02T12:06:02.887Z,32.09
2022-08-02T12:10:50.421Z,32.38
2022-08-02T12:15:52.843Z,33.91
2022-08-02T12:20:55.068Z,33.03
2022-08-02T12:26:07.688Z,32.70
2022-08-02T12:31:13.553Z,34.14
2022-08-02T12:36:24.388Z,36.34
2022-08-02T12:41:31.405Z,37.04
2022-08-02T12:46:41.873Z,42.42
2022-08-02T12:51:54.821Z,39.49
2022-08-02T12:57:16.513Z,45.08
2022-08-02T13:02:19.931Z,45.12
2022-08-02T13:07:22.804Z,45.96
2022-08-02T13:12:25.050Z,47.09
2022-08-02T13:17:27.238Z,45.17
2022-08-02T13:22:29.674Z,48.60
2022-08-02T13:27:33.994Z,41.78
2022-08-02T13:32:36.339Z,39.38
2022-08-02T13:37:40.374Z,39.13
2022-08-02T13:42:42.893Z,47.83
2022-08-02T13:48:04.001Z,45.28
2022-08-02T13:53:07.593Z,44.39
2022-08-02T13:58:09.989Z,39.59
2022-08-02T14:03:14.460Z,38.63
2022-08-02T14:08:18.735Z,38.41
2022-08-02T14:13:21.564Z,41.88
2022-08-02T14:18:23.817Z,39.98
2022-08-02T14:23:49.267Z,37.53
2022-08-02T14:28:49.907Z,37.87
2022-08-02T14:33:53.722Z,36.62
2022-08-02T14:38:59.349Z,37.11
2022-08-02T14:44:04.543Z,37.83
2022-08-02T14:49:08.446Z,39.35
2022-08-02T14:54:11.924Z,39.92
2022-08-02T14:59:17.000Z,41.79
2022-08-02T15:04:19.258Z,41.47
2022-08-02T15:09:21.647Z,40.79
2022-08-02T15:14:26.398Z,43.16
2022-08-02T15:19:58.999Z,40.30
2022-08-02T15:24:52.264Z,49.40
2022-08-02T15:30:00.634Z,49.54
2022-08-02T15:35:03.199Z,45.33
2022-08-02T15:40:06.119Z,47.59
2022-08-02T15:45:13.127Z,52.83
2022-08-02T15:50:18.884Z,53.88
2022-08-02T15:55:21.354Z,52.05
2022-08-02T16:00:23.866Z,54.44
2022-08-02T16:05:39.723Z,57.80
2022-08-02T16:10:47.537Z,58.96
2022-08-02T16:15:55.055Z,61.54
2022-08-02T16:20:57.422Z,59.01
2022-08-02T16:26:04.532Z,62.70
2022-08-02T16:31:11.422Z,61.68
2022-08-02T16:36:15.117Z,66.18
2022-08-02T16:41:22.712Z,63.25
2022-08-02T16:46:24.849Z,65.68
2022-08-02T16:51:27.833Z,64.52
2022-08-02T16:56:33.470Z,69.83
2022-08-02T17:02:03.051Z,72.92
2022-08-02T17:06:58.426Z,70.50
2022-08-02T17:12:01.556Z,73.71
2022-08-02T17:17:04.284Z,75.24
2022-08-02T17:22:10.127Z,76.07
2022-08-02T17:27:24.954Z,76.75
2022-08-02T17:32:31.632Z,78.92
2022-08-02T17:37:36.510Z,79.58
2022-08-02T17:42:43.942Z,80.60
2022-08-02T17:48:05.048Z,79.60
2022-08-02T17:53:08.065Z,80.68
2022-08-02T17:58:12.482Z,81.58
2022-08-02T18:03:15.155Z,83.54
2022-08-02T18:08:17.464Z,81.85
2022-08-02T18:13:28.503Z,84.94
2022-08-02T18:18:35.568Z,82.16
2022-08-02T18:23:38.812Z,84.58
2022-08-02T18:29:03.655Z,86.31
2022-08-02T18:34:10.196Z,84.52
2022-08-02T18:39:12.541Z,83.68
2022-08-02T18:44:19.346Z,85.85
2022-08-02T18:49:22.657Z,87.58
2022-08-02T18:54:26.608Z,88.83
2022-08-02T18:59:51.338Z,88.34
2022-08-02T19:04:54.588Z,91.22
2022-08-02T19:09:59.862Z,91.45
2022-08-02T19:15:02.439Z,93.42
2022-08-02T19:20:19.171Z,95.62
2022-08-02T19:25:38.724Z,97.25
2022-08-02T19:30:43.328Z,99.31
2022-08-02T19:36:02.048Z,99.58
2022-08-02T19:41:06.348Z,99.85
2022-08-02T19:46:15.946Z,99.97
2022-08-02T19:51:49.583Z,100.00
2022-08-02T19:56:45.475Z,100.00
2022-08-02T20:01:49.121Z,100.00
2022-08-02T20:06:51.588Z,100.00
2022-08-02T20:11:55.420Z,100.00
2022-08-02T20:16:59.968Z,100.00
2022-08-02T20:22:02.351Z,98.59
2022-08-02T20:27:04.800Z,100.00
2022-08-02T20:32:07.865Z,100.00
2022-08-02T20:38:01.008Z,100.00
2022-08-02T20:42:34.392Z,100.00
2022-08-02T20:47:39.715Z,100.00
2022-08-02T20:52:51.518Z,100.00
2022-08-02T20:58:00.226Z,100.00
2022-08-02T21:03:09.518Z,100.00
2022-08-02T21:08:14.902Z,100.00
2022-08-02T21:13:22.533Z,100.00
2022-08-02T21:18:34.922Z,99.79
2022-08-02T21:23:48.407Z,97.96
2022-08-02T21:28:56.892Z,100.00
2022-08-02T21:34:03.145Z,100.00
2022-08-02T21:39:14.889Z,100.00
2022-08-02T21:44:19.260Z,100.00
2022-08-02T21:54:49.999Z,100.00
2022-08-02T21:59:55.493Z,100.00
2022-08-02T22:04:58.279Z,100.00
2022-08-02T22:10:00.648Z,100.00
2022-08-02T22:15:05.371Z,100.00
2022-08-02T22:20:15.467Z,100.00
2022-08-02T22:25:27.171Z,100.00
2022-08-02T22:30:43.212Z,100.00
2022-08-02T22:35:46.612Z,100.00
2022-08-02T22:40:50.599Z,100.00
2022-08-02T22:45:52.919Z,100.00
2022-08-02T22:50:55.145Z,100.00
2022-08-02T22:55:57.596Z,100.00
2022-08-02T23:01:00.140Z,100.00
2022-08-02T23:06:02.495Z,100.00
2022-08-02T23:11:04.872Z,100.00
2022-08-02T23:16:26.402Z,100.00
2022-08-02T23:21:46.128Z,100.00
2022-08-02T23:26:55.211Z,100.00
2022-08-02T23:31:57.816Z,100.00
2022-08-02T23:37:04.047Z,100.00
2022-08-02T23:42:06.494Z,100.00
2022-08-02T23:47:11.255Z,100.00
2022-08-02T23:52:13.787Z,100.00
2022-08-02T23:57:20.070Z,100.00
